sensor_id;sensor_type;location;lat;lon;timestamp;pressure;altitude;pressure_sealevel;temperature;humidity
38197;BME280;26543;51.976;4.616;2024-02-21T00:01:42;54566.66;;;-140.72;100.00
38197;BME280;26543;51.976;4.616;2024-02-21T00:04:07;54542.31;;;-140.72;100.00
38197;BME280;26543;51.976;4.616;2024-02-21T00:06:33;54550.44;;;-140.72;100.00
38197;BME280;26543;51.976;4.616;2024-02-21T00:08:58;54546.38;;;-140.72;100.00
38197;BME280;26543;51.976;4.616;2024-02-21T00:11:24;54570.72;;;-140.72;100.00
38197;BME280;26543;51.976;4.616;2024-02-21T00:13:49;54560.59;;;-140.72;100.00
38197;BME280;26543;51.976;4.616;2024-02-21T00:16:19;54593.06;;;-140.72;100.00
38197;BME280;26543;51.976;4.616;2024-02-21T00:18:45;54599.16;;;-140.72;100.00
38197;BME280;26543;51.976;4.616;2024-02-21T00:21:10;54570.72;;;-140.72;100.00
38197;BME280;26543;51.976;4.616;2024-02-21T00:23:43;54601.19;;;-140.72;100.00
38197;BME280;26543;51.976;4.616;2024-02-21T00:26:08;54524.03;;;-140.72;100.00
38197;BME280;26543;51.976;4.616;2024-02-21T00:28:33;54564.63;;;-140.72;100.00
38197;BME280;26543;51.976;4.616;2024-02-21T00:30:59;54589.00;;;-140.72;100.00
38197;BME280;26543;51.976;4.616;2024-02-21T00:33:24;54536.22;;;-140.72;100.00
38197;BME280;26543;51.976;4.616;2024-02-21T00:35:50;54542.31;;;-140.72;100.00
38197;BME280;26543;51.976;4.616;2024-02-21T00:38:15;54591.03;;;-140.72;100.00
38197;BME280;26543;51.976;4.616;2024-02-21T00:40:41;54570.72;;;-140.72;100.00
38197;BME280;26543;51.976;4.616;2024-02-21T00:43:06;54542.31;;;-140.72;100.00
38197;BME280;26543;51.976;4.616;2024-02-21T00:45:32;54517.94;;;-140.72;100.00
38197;BME280;26543;51.976;4.616;2024-02-21T00:47:57;54546.38;;;-140.72;100.00
38197;BME280;26543;51.976;4.616;2024-02-21T00:50:22;54522.00;;;-140.72;100.00
38197;BME280;26543;51.976;4.616;2024-02-21T00:52:48;54526.06;;;-140.72;100.00
38197;BME280;26543;51.976;4.616;2024-02-21T00:55:14;54517.94;;;-140.72;100.00
38197;BME280;26543;51.976;4.616;2024-02-21T00:57:39;54517.94;;;-140.72;100.00
38197;BME280;26543;51.976;4.616;2024-02-21T01:00:05;54507.78;;;-140.72;100.00
38197;BME280;26543;51.976;4.616;2024-02-21T01:02:30;54546.38;;;-140.72;100.00
38197;BME280;26543;51.976;4.616;2024-02-21T01:04:58;54542.31;;;-140.72;100.00
38197;BME280;26543;51.976;4.616;2024-02-21T01:07:24;54509.81;;;-140.72;100.00
38197;BME280;26543;51.976;4.616;2024-02-21T01:09:49;54515.91;;;-140.72;100.00
38197;BME280;26543;51.976;4.616;2024-02-21T01:12:16;54505.75;;;-140.72;100.00
38197;BME280;26543;51.976;4.616;2024-02-21T01:14:41;54540.28;;;-140.72;100.00
38197;BME280;26543;51.976;4.616;2024-02-21T01:17:07;54515.91;;;-140.72;100.00
38197;BME280;26543;51.976;4.616;2024-02-21T01:19:32;54513.88;;;-140.72;100.00
38197;BME280;26543;51.976;4.616;2024-02-21T01:21:57;54485.47;;;-140.72;100.00
38197;BME280;26543;51.976;4.616;2024-02-21T01:24:23;54497.66;;;-140.72;100.00
38197;BME280;26543;51.976;4.616;2024-02-21T01:26:49;54487.50;;;-140.72;100.00
38197;BME280;26543;51.976;4.616;2024-02-21T01:29:26;54522.00;;;-140.72;100.00
38197;BME280;26543;51.976;4.616;2024-02-21T01:31:51;54513.88;;;-140.72;100.00
38197;BME280;26543;51.976;4.616;2024-02-21T01:34:19;54530.13;;;-140.72;100.00
38197;BME280;26543;51.976;4.616;2024-02-21T01:36:44;54515.91;;;-140.72;100.00
38197;BME280;26543;51.976;4.616;2024-02-21T01:39:09;54469.22;;;-140.72;100.00
38197;BME280;26543;51.976;4.616;2024-02-21T01:41:35;54511.84;;;-140.72;100.00
38197;BME280;26543;51.976;4.616;2024-02-21T01:44:00;54509.81;;;-140.72;100.00
38197;BME280;26543;51.976;4.616;2024-02-21T01:46:25;54493.59;;;-140.72;100.00
38197;BME280;26543;51.976;4.616;2024-02-21T01:48:55;54513.88;;;-140.72;100.00
38197;BME280;26543;51.976;4.616;2024-02-21T01:51:21;54515.91;;;-140.72;100.00
38197;BME280;26543;51.976;4.616;2024-02-21T01:53:47;54517.94;;;-140.72;100.00
38197;BME280;26543;51.976;4.616;2024-02-21T01:56:12;54507.78;;;-140.72;100.00
38197;BME280;26543;51.976;4.616;2024-02-21T01:58:39;54534.19;;;-140.72;100.00
38197;BME280;26543;51.976;4.616;2024-02-21T02:01:06;54526.06;;;-140.72;100.00
38197;BME280;26543;51.976;4.616;2024-02-21T02:03:31;54534.19;;;-140.72;100.00
38197;BME280;26543;51.976;4.616;2024-02-21T02:05:57;54528.09;;;-140.72;100.00
38197;BME280;26543;51.976;4.616;2024-02-21T02:08:22;54499.66;;;-140.72;100.00
38197;BME280;26543;51.976;4.616;2024-02-21T02:10:48;54526.06;;;-140.72;100.00
38197;BME280;26543;51.976;4.616;2024-02-21T02:13:14;54505.75;;;-140.72;100.00
38197;BME280;26543;51.976;4.616;2024-02-21T02:18:10;54487.50;;;-140.72;100.00
38197;BME280;26543;51.976;4.616;2024-02-21T02:20:35;54534.19;;;-140.72;100.00
38197;BME280;26543;51.976;4.616;2024-02-21T02:25:54;54463.13;;;-140.72;100.00
38197;BME280;26543;51.976;4.616;2024-02-21T02:28:20;54517.94;;;-140.72;100.00
38197;BME280;26543;51.976;4.616;2024-02-21T02:30:46;54509.81;;;-140.72;100.00
38197;BME280;26543;51.976;4.616;2024-02-21T02:33:12;54505.75;;;-140.72;100.00
38197;BME280;26543;51.976;4.616;2024-02-21T02:35:37;54497.66;;;-140.72;100.00
38197;BME280;26543;51.976;4.616;2024-02-21T02:38:03;54505.75;;;-140.72;100.00
38197;BME280;26543;51.976;4.616;2024-02-21T02:40:28;54479.38;;;-140.72;100.00
38197;BME280;26543;51.976;4.616;2024-02-21T02:42:54;54450.94;;;-140.72;100.00
38197;BME280;26543;51.976;4.616;2024-02-21T02:45:23;54477.34;;;-140.72;100.00
38197;BME280;26543;51.976;4.616;2024-02-21T02:47:51;54471.25;;;-140.72;100.00
38197;BME280;26543;51.976;4.616;2024-02-21T02:50:17;54448.91;;;-140.72;100.00
38197;BME280;26543;51.976;4.616;2024-02-21T02:52:42;54448.91;;;-140.72;100.00
38197;BME280;26543;51.976;4.616;2024-02-21T02:55:08;54444.84;;;-140.72;100.00
38197;BME280;26543;51.976;4.616;2024-02-21T02:57:33;54463.13;;;-140.72;100.00
38197;BME280;26543;51.976;4.616;2024-02-21T02:59:58;54450.94;;;-140.72;100.00
38197;BME280;26543;51.976;4.616;2024-02-21T03:02:24;54432.69;;;-140.72;100.00
38197;BME280;26543;51.976;4.616;2024-02-21T03:04:50;54452.97;;;-140.72;100.00
38197;BME280;26543;51.976;4.616;2024-02-21T03:07:15;54465.16;;;-140.72;100.00
38197;BME280;26543;51.976;4.616;2024-02-21T03:09:41;54426.59;;;-140.72;100.00
38197;BME280;26543;51.976;4.616;2024-02-21T03:12:08;54428.63;;;-140.72;100.00
38197;BME280;26543;51.976;4.616;2024-02-21T03:14:34;54410.34;;;-140.72;100.00
38197;BME280;26543;51.976;4.616;2024-02-21T03:16:59;54432.69;;;-140.72;100.00
38197;BME280;26543;51.976;4.616;2024-02-21T03:19:25;54432.69;;;-140.72;100.00
38197;BME280;26543;51.976;4.616;2024-02-21T03:21:51;54418.47;;;-140.72;100.00
38197;BME280;26543;51.976;4.616;2024-02-21T03:24:16;54408.31;;;-140.72;100.00
38197;BME280;26543;51.976;4.616;2024-02-21T03:26:42;54432.69;;;-140.72;100.00
38197;BME280;26543;51.976;4.616;2024-02-21T03:29:07;54452.97;;;-140.72;100.00
38197;BME280;26543;51.976;4.616;2024-02-21T03:31:34;54410.34;;;-140.72;100.00
38197;BME280;26543;51.976;4.616;2024-02-21T03:34:00;54434.72;;;-140.72;100.00
38197;BME280;26543;51.976;4.616;2024-02-21T03:36:25;54448.91;;;-140.72;100.00
38197;BME280;26543;51.976;4.616;2024-02-21T03:38:51;54430.66;;;-140.72;100.00
38197;BME280;26543;51.976;4.616;2024-02-21T03:41:16;54461.09;;;-140.72;100.00
38197;BME280;26543;51.976;4.616;2024-02-21T03:43:41;54414.41;;;-140.72;100.00
38197;BME280;26543;51.976;4.616;2024-02-21T03:46:07;54424.56;;;-140.72;100.00
38197;BME280;26543;51.976;4.616;2024-02-21T03:48:32;54424.56;;;-140.72;100.00
38197;BME280;26543;51.976;4.616;2024-02-21T03:50:58;54416.44;;;-140.72;100.00
38197;BME280;26543;51.976;4.616;2024-02-21T03:53:24;54412.38;;;-140.72;100.00
38197;BME280;26543;51.976;4.616;2024-02-21T03:55:49;54414.41;;;-140.72;100.00
38197;BME280;26543;51.976;4.616;2024-02-21T03:58:14;54428.63;;;-140.72;100.00
38197;BME280;26543;51.976;4.616;2024-02-21T04:00:40;54420.50;;;-140.72;100.00
38197;BME280;26543;51.976;4.616;2024-02-21T04:03:06;54396.13;;;-140.72;100.00
38197;BME280;26543;51.976;4.616;2024-02-21T04:05:32;54430.66;;;-140.72;100.00
38197;BME280;26543;51.976;4.616;2024-02-21T04:07:57;54424.56;;;-140.72;100.00
38197;BME280;26543;51.976;4.616;2024-02-21T04:10:22;54420.50;;;-140.72;100.00
38197;BME280;26543;51.976;4.616;2024-02-21T04:12:48;54396.13;;;-140.72;100.00
38197;BME280;26543;51.976;4.616;2024-02-21T04:15:16;54424.56;;;-140.72;100.00
38197;BME280;26543;51.976;4.616;2024-02-21T04:17:41;54432.69;;;-140.72;100.00
38197;BME280;26543;51.976;4.616;2024-02-21T04:20:14;54375.84;;;-140.72;100.00
38197;BME280;26543;51.976;4.616;2024-02-21T04:22:39;54373.81;;;-140.72;100.00
38197;BME280;26543;51.976;4.616;2024-02-21T04:25:05;54438.78;;;-140.72;100.00
38197;BME280;26543;51.976;4.616;2024-02-21T04:27:30;54390.03;;;-140.72;100.00
38197;BME280;26543;51.976;4.616;2024-02-21T04:29:56;54440.81;;;-140.72;100.00
38197;BME280;26543;51.976;4.616;2024-02-21T04:32:21;54422.53;;;-140.72;100.00
38197;BME280;26543;51.976;4.616;2024-02-21T04:34:46;54418.47;;;-140.72;100.00
38197;BME280;26543;51.976;4.616;2024-02-21T04:37:11;54388.00;;;-140.72;100.00
38197;BME280;26543;51.976;4.616;2024-02-21T04:39:37;54432.69;;;-140.72;100.00
38197;BME280;26543;51.976;4.616;2024-02-21T04:42:02;54379.91;;;-140.72;100.00
38197;BME280;26543;51.976;4.616;2024-02-21T04:44:28;54422.53;;;-140.72;100.00
38197;BME280;26543;51.976;4.616;2024-02-21T04:46:53;54444.84;;;-140.72;100.00
38197;BME280;26543;51.976;4.616;2024-02-21T04:49:18;54406.28;;;-140.72;100.00
38197;BME280;26543;51.976;4.616;2024-02-21T04:51:44;54416.44;;;-140.72;100.00
38197;BME280;26543;51.976;4.616;2024-02-21T04:54:09;54448.91;;;-140.72;100.00
38197;BME280;26543;51.976;4.616;2024-02-21T04:56:34;54406.28;;;-140.72;100.00
38197;BME280;26543;51.976;4.616;2024-02-21T04:59:00;54461.09;;;-140.72;100.00
38197;BME280;26543;51.976;4.616;2024-02-21T05:01:25;54390.03;;;-140.72;100.00
38197;BME280;26543;51.976;4.616;2024-02-21T05:03:51;54381.94;;;-140.72;100.00
38197;BME280;26543;51.976;4.616;2024-02-21T05:06:16;54459.06;;;-140.72;100.00
38197;BME280;26543;51.976;4.616;2024-02-21T05:08:42;54434.72;;;-140.72;100.00
38197;BME280;26543;51.976;4.616;2024-02-21T05:11:07;54424.56;;;-140.72;100.00
38197;BME280;26543;51.976;4.616;2024-02-21T05:13:32;54436.75;;;-140.72;100.00
38197;BME280;26543;51.976;4.616;2024-02-21T05:15:58;54450.94;;;-140.72;100.00
38197;BME280;26543;51.976;4.616;2024-02-21T05:18:26;54420.50;;;-140.72;100.00
38197;BME280;26543;51.976;4.616;2024-02-21T05:20:52;54463.13;;;-140.72;100.00
38197;BME280;26543;51.976;4.616;2024-02-21T05:23:17;54436.75;;;-140.72;100.00
38197;BME280;26543;51.976;4.616;2024-02-21T05:25:42;54457.03;;;-140.72;100.00
38197;BME280;26543;51.976;4.616;2024-02-21T05:28:08;54477.34;;;-140.72;100.00
38197;BME280;26543;51.976;4.616;2024-02-21T05:30:33;54448.91;;;-140.72;100.00
38197;BME280;26543;51.976;4.616;2024-02-21T05:32:58;54473.28;;;-140.72;100.00
38197;BME280;26543;51.976;4.616;2024-02-21T05:35:27;54491.56;;;-140.72;100.00
38197;BME280;26543;51.976;4.616;2024-02-21T05:37:53;54473.28;;;-140.72;100.00
38197;BME280;26543;51.976;4.616;2024-02-21T05:40:18;54517.94;;;-140.72;100.00
38197;BME280;26543;51.976;4.616;2024-02-21T05:42:43;54483.44;;;-140.72;100.00
38197;BME280;26543;51.976;4.616;2024-02-21T05:45:09;54558.56;;;-140.72;100.00
38197;BME280;26543;51.976;4.616;2024-02-21T05:47:34;54558.56;;;-140.72;100.00
38197;BME280;26543;51.976;4.616;2024-02-21T05:50:00;54532.16;;;-140.72;100.00
38197;BME280;26543;51.976;4.616;2024-02-21T05:52:25;54526.06;;;-140.72;100.00
38197;BME280;26543;51.976;4.616;2024-02-21T05:54:50;54546.38;;;-140.72;100.00
38197;BME280;26543;51.976;4.616;2024-02-21T05:57:17;54503.72;;;-140.72;100.00
38197;BME280;26543;51.976;4.616;2024-02-21T05:59:43;54558.56;;;-140.72;100.00
38197;BME280;26543;51.976;4.616;2024-02-21T06:02:09;54550.44;;;-140.72;100.00
38197;BME280;26543;51.976;4.616;2024-02-21T06:04:34;54554.50;;;-140.72;100.00
38197;BME280;26543;51.976;4.616;2024-02-21T06:07:00;54515.91;;;-140.72;100.00
38197;BME280;26543;51.976;4.616;2024-02-21T06:09:25;54550.44;;;-140.72;100.00
38197;BME280;26543;51.976;4.616;2024-02-21T06:11:50;54481.41;;;-140.72;100.00
38197;BME280;26543;51.976;4.616;2024-02-21T06:14:16;54534.19;;;-140.72;100.00
38197;BME280;26543;51.976;4.616;2024-02-21T06:16:43;54544.34;;;-140.72;100.00
38197;BME280;26543;51.976;4.616;2024-02-21T06:19:08;54544.34;;;-140.72;100.00
38197;BME280;26543;51.976;4.616;2024-02-21T06:21:34;54568.69;;;-140.72;100.00
38197;BME280;26543;51.976;4.616;2024-02-21T06:23:59;54534.19;;;-140.72;100.00
38197;BME280;26543;51.976;4.616;2024-02-21T06:26:25;54562.59;;;-140.72;100.00
38197;BME280;26543;51.976;4.616;2024-02-21T06:28:50;54566.66;;;-140.72;100.00
38197;BME280;26543;51.976;4.616;2024-02-21T06:31:15;54584.94;;;-140.72;100.00
38197;BME280;26543;51.976;4.616;2024-02-21T06:33:41;54536.22;;;-140.72;100.00
38197;BME280;26543;51.976;4.616;2024-02-21T06:36:06;54513.88;;;-140.72;100.00
38197;BME280;26543;51.976;4.616;2024-02-21T06:38:32;54558.56;;;-140.72;100.00
38197;BME280;26543;51.976;4.616;2024-02-21T06:40:59;54572.75;;;-140.72;100.00
38197;BME280;26543;51.976;4.616;2024-02-21T06:43:25;54554.50;;;-140.72;100.00
38197;BME280;26543;51.976;4.616;2024-02-21T06:45:51;54574.78;;;-140.72;100.00
38197;BME280;26543;51.976;4.616;2024-02-21T06:48:17;54570.72;;;-140.72;100.00
38197;BME280;26543;51.976;4.616;2024-02-21T06:50:43;54607.28;;;-140.72;100.00
38197;BME280;26543;51.976;4.616;2024-02-21T06:53:08;54603.22;;;-140.72;100.00
38197;BME280;26543;51.976;4.616;2024-02-21T06:55:34;54572.75;;;-140.72;100.00
38197;BME280;26543;51.976;4.616;2024-02-21T06:57:59;54615.41;;;-140.72;100.00
38197;BME280;26543;51.976;4.616;2024-02-21T07:00:24;54611.34;;;-140.72;100.00
38197;BME280;26543;51.976;4.616;2024-02-21T07:02:51;54578.84;;;-140.72;100.00
38197;BME280;26543;51.976;4.616;2024-02-21T07:05:17;54623.53;;;-140.72;100.00
38197;BME280;26543;51.976;4.616;2024-02-21T07:07:42;54615.41;;;-140.72;100.00
38197;BME280;26543;51.976;4.616;2024-02-21T07:10:07;54619.47;;;-140.72;100.00
38197;BME280;26543;51.976;4.616;2024-02-21T07:12:33;54625.53;;;-140.72;100.00
38197;BME280;26543;51.976;4.616;2024-02-21T07:15:00;54576.81;;;-140.72;100.00
38197;BME280;26543;51.976;4.616;2024-02-21T07:17:25;54595.09;;;-140.72;100.00
38197;BME280;26543;51.976;4.616;2024-02-21T07:19:50;54574.78;;;-140.72;100.00
38197;BME280;26543;51.976;4.616;2024-02-21T07:22:16;54635.69;;;-140.72;100.00
38197;BME280;26543;51.976;4.616;2024-02-21T07:24:41;54582.91;;;-140.72;100.00
38197;BME280;26543;51.976;4.616;2024-02-21T07:27:06;54595.09;;;-140.72;100.00
38197;BME280;26543;51.976;4.616;2024-02-21T07:29:31;54597.13;;;-140.72;100.00
38197;BME280;26543;51.976;4.616;2024-02-21T07:31:57;54595.09;;;-140.72;100.00
38197;BME280;26543;51.976;4.616;2024-02-21T07:34:22;54560.59;;;-140.72;100.00
38197;BME280;26543;51.976;4.616;2024-02-21T07:36:47;54570.72;;;-140.72;100.00
38197;BME280;26543;51.976;4.616;2024-02-21T07:39:13;54566.66;;;-140.72;100.00
38197;BME280;26543;51.976;4.616;2024-02-21T07:41:38;54595.09;;;-140.72;100.00
38197;BME280;26543;51.976;4.616;2024-02-21T07:44:05;54554.50;;;-140.72;100.00
38197;BME280;26543;51.976;4.616;2024-02-21T07:46:30;54542.31;;;-140.72;100.00
38197;BME280;26543;51.976;4.616;2024-02-21T07:48:55;54538.25;;;-140.72;100.00
38197;BME280;26543;51.976;4.616;2024-02-21T07:51:21;54554.50;;;-140.72;100.00
38197;BME280;26543;51.976;4.616;2024-02-21T07:53:46;54546.38;;;-140.72;100.00
38197;BME280;26543;51.976;4.616;2024-02-21T07:56:13;54513.88;;;-140.72;100.00
38197;BME280;26543;51.976;4.616;2024-02-21T07:58:39;54497.66;;;-140.72;100.00
38197;BME280;26543;51.976;4.616;2024-02-21T08:01:04;54507.78;;;-140.72;100.00
38197;BME280;26543;51.976;4.616;2024-02-21T08:03:30;54548.41;;;-140.72;100.00
38197;BME280;26543;51.976;4.616;2024-02-21T08:05:55;54560.59;;;-140.72;100.00
38197;BME280;26543;51.976;4.616;2024-02-21T08:08:20;54513.88;;;-140.72;100.00
38197;BME280;26543;51.976;4.616;2024-02-21T08:10:48;54538.25;;;-140.72;100.00
38197;BME280;26543;51.976;4.616;2024-02-21T08:13:13;54503.72;;;-140.72;100.00
38197;BME280;26543;51.976;4.616;2024-02-21T08:15:39;54554.50;;;-140.72;100.00
38197;BME280;26543;51.976;4.616;2024-02-21T08:18:05;54538.25;;;-140.72;100.00
38197;BME280;26543;51.976;4.616;2024-02-21T08:20:30;54556.53;;;-140.72;100.00
38197;BME280;26543;51.976;4.616;2024-02-21T08:22:56;54489.53;;;-140.72;100.00
38197;BME280;26543;51.976;4.616;2024-02-21T08:25:21;54530.13;;;-140.72;100.00
38197;BME280;26543;51.976;4.616;2024-02-21T08:27:46;54491.56;;;-140.72;100.00
38197;BME280;26543;51.976;4.616;2024-02-21T08:30:12;54457.03;;;-140.72;100.00
38197;BME280;26543;51.976;4.616;2024-02-21T08:32:37;54487.50;;;-140.72;100.00
38197;BME280;26543;51.976;4.616;2024-02-21T08:35:03;54473.28;;;-140.72;100.00
38197;BME280;26543;51.976;4.616;2024-02-21T08:37:30;54493.59;;;-140.72;100.00
38197;BME280;26543;51.976;4.616;2024-02-21T08:39:55;54416.44;;;-140.72;100.00
38197;BME280;26543;51.976;4.616;2024-02-21T08:42:21;54450.94;;;-140.72;100.00
38197;BME280;26543;51.976;4.616;2024-02-21T08:44:46;54469.22;;;-140.72;100.00
38197;BME280;26543;51.976;4.616;2024-02-21T08:47:12;54416.44;;;-140.72;100.00
38197;BME280;26543;51.976;4.616;2024-02-21T08:49:37;54469.22;;;-140.72;100.00
38197;BME280;26543;51.976;4.616;2024-02-21T08:52:03;54473.28;;;-140.72;100.00
38197;BME280;26543;51.976;4.616;2024-02-21T08:54:29;54396.13;;;-140.72;100.00
38197;BME280;26543;51.976;4.616;2024-02-21T08:57:03;54436.75;;;-140.72;100.00
38197;BME280;26543;51.976;4.616;2024-02-21T08:59:29;54412.38;;;-140.72;100.00
38197;BME280;26543;51.976;4.616;2024-02-21T09:01:54;54383.94;;;-140.72;100.00
38197;BME280;26543;51.976;4.616;2024-02-21T09:04:19;54365.69;;;-140.72;100.00
38197;BME280;26543;51.976;4.616;2024-02-21T09:06:45;54390.03;;;-140.72;100.00
38197;BME280;26543;51.976;4.616;2024-02-21T09:09:11;54363.66;;;-140.72;100.00
38197;BME280;26543;51.976;4.616;2024-02-21T09:11:37;54333.19;;;-140.72;100.00
38197;BME280;26543;51.976;4.616;2024-02-21T09:14:02;54359.59;;;-140.72;100.00
38197;BME280;26543;51.976;4.616;2024-02-21T09:16:30;54351.47;;;-140.72;100.00
38197;BME280;26543;51.976;4.616;2024-02-21T09:18:56;54300.72;;;-140.72;100.00
38197;BME280;26543;51.976;4.616;2024-02-21T09:21:22;54310.88;;;-140.72;100.00
38197;BME280;26543;51.976;4.616;2024-02-21T09:23:48;54312.91;;;-140.72;100.00
38197;BME280;26543;51.976;4.616;2024-02-21T09:26:13;54304.78;;;-140.72;100.00
38197;BME280;26543;51.976;4.616;2024-02-21T09:28:41;54319.00;;;-140.72;100.00
38197;BME280;26543;51.976;4.616;2024-02-21T09:31:06;54276.34;;;-140.72;100.00
38197;BME280;26543;51.976;4.616;2024-02-21T09:33:32;54288.53;;;-140.72;100.00
38197;BME280;26543;51.976;4.616;2024-02-21T09:35:57;54247.94;;;-140.72;100.00
38197;BME280;26543;51.976;4.616;2024-02-21T09:38:22;54274.31;;;-140.72;100.00
38197;BME280;26543;51.976;4.616;2024-02-21T09:40:59;54249.97;;;-140.72;100.00
38197;BME280;26543;51.976;4.616;2024-02-21T09:43:25;54282.44;;;-140.72;100.00
38197;BME280;26543;51.976;4.616;2024-02-21T09:45:54;54235.75;;;-140.72;100.00
38197;BME280;26543;51.976;4.616;2024-02-21T09:51:05;54213.44;;;-140.72;100.00
38197;BME280;26543;51.976;4.616;2024-02-21T09:53:32;54168.75;;;-140.72;100.00
38197;BME280;26543;51.976;4.616;2024-02-21T09:55:59;54174.84;;;-140.72;100.00
38197;BME280;26543;51.976;4.616;2024-02-21T09:58:26;54174.84;;;-140.72;100.00
38197;BME280;26543;51.976;4.616;2024-02-21T10:00:52;54138.31;;;-140.72;100.00
38197;BME280;26543;51.976;4.616;2024-02-21T10:03:18;54142.38;;;-140.72;100.00
38197;BME280;26543;51.976;4.616;2024-02-21T10:05:48;54105.84;;;-140.72;100.00
38197;BME280;26543;51.976;4.616;2024-02-21T10:08:15;54101.78;;;-140.72;100.00
38197;BME280;26543;51.976;4.616;2024-02-21T10:10:43;54061.19;;;-140.72;100.00
38197;BME280;26543;51.976;4.616;2024-02-21T10:13:09;53890.66;;;-140.72;100.00
38197;BME280;26543;51.976;4.616;2024-02-21T10:15:35;53876.44;;;-140.72;100.00
38197;BME280;26543;51.976;4.616;2024-02-21T10:18:01;53882.53;;;-140.72;100.00
38197;BME280;26543;51.976;4.616;2024-02-21T10:20:28;53860.22;;;-140.72;100.00
38197;BME280;26543;51.976;4.616;2024-02-21T10:23:04;53856.16;;;-140.72;100.00
38197;BME280;26543;51.976;4.616;2024-02-21T10:25:38;53882.53;;;-140.72;100.00
38197;BME280;26543;51.976;4.616;2024-02-21T10:28:07;53852.09;;;-140.72;100.00
38197;BME280;26543;51.976;4.616;2024-02-21T10:30:32;53819.63;;;-140.72;100.00
38197;BME280;26543;51.976;4.616;2024-02-21T10:32:57;53866.31;;;-140.72;100.00
38197;BME280;26543;51.976;4.616;2024-02-21T10:35:31;53827.75;;;-140.72;100.00
38197;BME280;26543;51.976;4.616;2024-02-21T10:37:57;53872.41;;;-140.72;100.00
38197;BME280;26543;51.976;4.616;2024-02-21T10:40:27;53827.75;;;-140.72;100.00
38197;BME280;26543;51.976;4.616;2024-02-21T10:43:02;53848.03;;;-140.72;100.00
38197;BME280;26543;51.976;4.616;2024-02-21T10:45:35;53831.78;;;-140.72;100.00
38197;BME280;26543;51.976;4.616;2024-02-21T10:48:08;53789.16;;;-140.72;100.00
38197;BME280;26543;51.976;4.616;2024-02-21T10:56:16;53807.44;;;-140.72;100.00
38197;BME280;26543;51.976;4.616;2024-02-21T10:58:43;53811.50;;;-140.72;100.00
38197;BME280;26543;51.976;4.616;2024-02-21T11:01:09;53795.25;;;-140.72;100.00
38197;BME280;26543;51.976;4.616;2024-02-21T11:03:35;53774.97;;;-140.72;100.00
38197;BME280;26543;51.976;4.616;2024-02-21T11:06:02;53742.47;;;-140.72;100.00
38197;BME280;26543;51.976;4.616;2024-02-21T11:08:30;53746.53;;;-140.72;100.00
38197;BME280;26543;51.976;4.616;2024-02-21T11:10:59;53752.63;;;-140.72;100.00
38197;BME280;26543;51.976;4.616;2024-02-21T11:13:32;53707.97;;;-140.72;100.00
38197;BME280;26543;51.976;4.616;2024-02-21T11:16:10;53669.41;;;-140.72;100.00
38197;BME280;26543;51.976;4.616;2024-02-21T11:18:38;53689.72;;;-140.72;100.00
38197;BME280;26543;51.976;4.616;2024-02-21T11:21:04;53606.50;;;-140.72;100.00
38197;BME280;26543;51.976;4.616;2024-02-21T11:23:32;53659.25;;;-140.72;100.00
38197;BME280;26543;51.976;4.616;2024-02-21T11:26:06;53634.91;;;-140.72;100.00
38197;BME280;26543;51.976;4.616;2024-02-21T11:28:32;53576.03;;;-140.72;100.00
38197;BME280;26543;51.976;4.616;2024-02-21T11:31:13;53584.16;;;-140.72;100.00
38197;BME280;26543;51.976;4.616;2024-02-21T11:33:42;53580.09;;;-140.72;100.00
38197;BME280;26543;51.976;4.616;2024-02-21T11:36:23;53494.84;;;-140.72;100.00
38197;BME280;26543;51.976;4.616;2024-02-21T11:38:50;53563.88;;;-140.72;100.00
38197;BME280;26543;51.976;4.616;2024-02-21T11:41:15;53535.44;;;-140.72;100.00
38197;BME280;26543;51.976;4.616;2024-02-21T11:43:41;53509.06;;;-140.72;100.00
38197;BME280;26543;51.976;4.616;2024-02-21T11:46:06;53515.16;;;-140.72;100.00
38197;BME280;26543;51.976;4.616;2024-02-21T11:48:32;53498.91;;;-140.72;100.00
38197;BME280;26543;51.976;4.616;2024-02-21T11:50:57;53519.22;;;-140.72;100.00
38197;BME280;26543;51.976;4.616;2024-02-21T11:53:23;53468.47;;;-140.72;100.00
38197;BME280;26543;51.976;4.616;2024-02-21T11:55:49;53462.38;;;-140.72;100.00
38197;BME280;26543;51.976;4.616;2024-02-21T11:58:15;53496.88;;;-140.72;100.00
38197;BME280;26543;51.976;4.616;2024-02-21T12:00:41;53505.00;;;-140.72;100.00
38197;BME280;26543;51.976;4.616;2024-02-21T12:03:07;53486.72;;;-140.72;100.00
38197;BME280;26543;51.976;4.616;2024-02-21T12:05:32;53466.44;;;-140.72;100.00
38197;BME280;26543;51.976;4.616;2024-02-21T12:07:58;53523.28;;;-140.72;100.00
38197;BME280;26543;51.976;4.616;2024-02-21T12:10:27;53488.75;;;-140.72;100.00
38197;BME280;26543;51.976;4.616;2024-02-21T12:12:53;53509.06;;;-140.72;100.00
38197;BME280;26543;51.976;4.616;2024-02-21T12:15:23;53494.84;;;-140.72;100.00
38197;BME280;26543;51.976;4.616;2024-02-21T12:17:49;53507.03;;;-140.72;100.00
38197;BME280;26543;51.976;4.616;2024-02-21T12:20:17;53511.09;;;-140.72;100.00
38197;BME280;26543;51.976;4.616;2024-02-21T12:22:42;53555.75;;;-140.72;100.00
38197;BME280;26543;51.976;4.616;2024-02-21T12:25:18;53529.34;;;-140.72;100.00
38197;BME280;26543;51.976;4.616;2024-02-21T12:27:44;53549.66;;;-140.72;100.00
38197;BME280;26543;51.976;4.616;2024-02-21T12:30:10;53539.50;;;-140.72;100.00
38197;BME280;26543;51.976;4.616;2024-02-21T12:32:36;53578.06;;;-140.72;100.00
38197;BME280;26543;51.976;4.616;2024-02-21T12:35:01;53571.97;;;-140.72;100.00
38197;BME280;26543;51.976;4.616;2024-02-21T12:37:27;53594.31;;;-140.72;100.00
38197;BME280;26543;51.976;4.616;2024-02-21T12:39:53;53553.72;;;-140.72;100.00